Kildare, Ireland
Current Conditions -  °F | °C
As of 11:00 AM on Monday 22 Dec 2014 (Local Time) from EIME Reporting Station
Light Rain Light Rain  
Wind Chill: 54°   Ceiling: 1600
Heat Index: 54°   Visibility: 4mi
Dew Point: 50°   Wind: 33mph
Humidity: 88%   Direction: 240°WSW
Pressure: 29.83"   Gusts: 45mph
Location:  53.16°N, 6.99°W
Report Text: EIME 221100Z 24029G39KT 7000 -RADZ FEW014 BKN016 BKN020 12/10 Q1010
Loading
Personal Weather Stations






























Interactive Weather Map New forecast layout! Learn more

10-Day Weather Forecast

Advertisements
Track Severe Weather on mobile